Time;durP1;ratioP1;P1;durP2;ratioP2;P2;SDS_P1;SDS_P2;PMS_P1;PMS_P2;Temp;Humidity;BMP_temperature;BMP_pressure;BME280_temperature;BME280_humidity;BME280_pressure;Samples;Min_cycle;Max_cycle;Signal;HPM_P1;HPM_P2
2022/02/04 00:06:26;;;;;;;60.95;19.48;;;;;;;12.64;65.64;100294.56;4858817;28;123135;-92
2022/02/04 00:09:17;;;;;;;55.63;19.38;;;;;;;12.57;65.64;100278.44;4854745;28;123672;-92
2022/02/04 00:28:13;;;;;;;55.58;15.85;;;;;;;12.71;66.79;100263.91;4847384;28;123561;-93
2022/02/04 00:30:44;;;;;;;56.45;16.98;;;;;;;12.62;66.08;100253.00;4838357;28;120312;-92
2022/02/04 00:33:11;;;;;;;54.00;17.85;;;;;;;12.52;65.35;100240.56;4839027;28;122852;-92
2022/02/04 00:40:42;;;;;;;45.47;17.67;;;;;;;12.33;65.49;100217.25;4852527;28;122501;-93
2022/02/04 00:43:11;;;;;;;45.00;16.98;;;;;;;12.72;65.64;100268.19;4867073;28;122848;-92
2022/02/04 00:45:53;;;;;;;52.70;17.25;;;;;;;12.60;65.49;100252.72;4853909;28;119674;-90
2022/02/04 00:50:58;;;;;;;40.60;14.73;;;;;;;12.73;65.75;100266.94;4850993;28;122278;-88
2022/02/04 00:53:35;;;;;;;46.42;16.05;;;;;;;12.78;65.05;100274.56;4849552;28;120793;-88
2022/02/04 01:28:29;;;;;;;48.10;15.10;;;;;;;12.46;65.13;100243.22;4852513;28;119687;-90
2022/02/04 01:30:56;;;;;;;37.72;13.90;;;;;;;12.36;66.57;100214.31;4861817;28;119753;-89
2022/02/04 01:33:22;;;;;;;47.22;16.70;;;;;;;12.55;65.36;100234.16;4852868;28;123245;-93
2022/02/04 01:35:48;;;;;;;45.67;15.75;;;;;;;12.07;64.57;100168.31;4857331;28;119928;-87
2022/02/04 01:38:14;;;;;;;39.95;15.45;;;;;;;12.46;64.55;100229.47;4852220;28;120843;-91
2022/02/04 01:40:40;;;;;;;46.13;16.05;;;;;;;12.47;65.34;100230.25;4856013;28;119882;-89
2022/02/04 01:43:06;;;;;;;42.17;15.73;;;;;;;12.11;64.88;100168.88;4868390;28;119584;-93
2022/02/04 01:45:32;;;;;;;47.97;16.33;;;;;;;12.27;64.49;100198.66;4849099;28;120011;-92
2022/02/04 01:47:57;;;;;;;51.53;16.00;;;;;;;12.35;65.05;100217.53;4836789;28;119710;-91
2022/02/04 01:50:31;;;;;;;47.22;15.38;;;;;;;12.37;65.00;100226.81;4852957;28;122326;-92
2022/02/04 01:52:59;;;;;;;55.65;17.40;;;;;;;12.20;64.87;100195.50;4850642;28;122138;-89
2022/02/04 01:55:25;;;;;;;49.03;16.10;;;;;;;12.38;65.26;100230.34;4862396;28;119990;-91
2022/02/04 01:57:51;;;;;;;50.45;15.63;;;;;;;12.34;64.95;100224.28;4866863;28;120492;-87
2022/02/04 02:00:18;;;;;;;41.17;15.43;;;;;;;12.16;64.93;100197.69;4853637;28;120168;-84
2022/02/04 02:02:44;;;;;;;40.33;14.18;;;;;;;12.23;64.39;100206.31;4869616;28;119877;-92
2022/02/04 02:05:10;;;;;;;37.05;13.65;;;;;;;12.35;64.72;100226.53;4853721;28;120450;-92
2022/02/04 02:07:41;;;;;;;40.55;14.20;;;;;;;12.26;65.00;100207.38;4865223;28;119690;-91
2022/02/04 02:10:12;;;;;;;40.60;14.52;;;;;;;12.19;64.48;100199.50;4852241;28;120103;-87
2022/02/04 02:15:38;;;;;;;37.83;13.00;;;;;;;12.12;64.40;100192.38;4826792;28;120081;-92
2022/02/04 02:53:58;;;;;;;41.58;17.42;;;;;;;11.97;64.93;100148.38;4867473;28;119893;-91
2022/02/04 02:56:58;;;;;;;39.13;16.75;;;;;;;11.94;65.74;100135.59;4854199;28;123315;-92
2022/02/04 02:59:16;;;;;;;37.72;16.00;;;;;;;11.91;65.17;100127.53;4839063;28;120300;-91
2022/02/04 03:01:47;;;;;;;39.28;16.92;;;;;;;11.85;65.17;100135.69;4838896;28;122380;-89
2022/02/04 03:04:15;;;;;;;37.67;17.10;;;;;;;11.83;65.41;100138.16;4870883;28;123435;-90
2022/02/04 03:06:42;;;;;;;38.88;17.08;;;;;;;11.89;65.33;100151.97;4875502;28;120019;-92
2022/02/04 03:09:08;;;;;;;41.28;18.33;;;;;;;12.00;65.11;100152.16;4854642;28;120180;-91
2022/02/04 03:11:34;;;;;;;36.50;17.45;;;;;;;11.98;65.48;100143.63;4872698;28;119807;-93
2022/02/04 03:14:00;;;;;;;41.03;18.90;;;;;;;11.91;65.48;100138.53;4838705;28;122250;-91
2022/02/04 03:16:26;;;;;;;37.80;19.60;;;;;;;11.97;64.74;100153.13;4838706;28;123333;-92
2022/02/04 03:18:54;;;;;;;43.75;20.10;;;;;;;11.84;64.97;100133.41;4833853;28;119815;-87
2022/02/04 03:21:27;;;;;;;37.03;19.67;;;;;;;12.00;65.40;100152.16;4849713;28;123441;-93
2022/02/04 03:24:00;;;;;;;40.67;18.92;;;;;;;12.04;66.08;100149.22;4853511;28;122944;-91
2022/02/04 03:29:09;;;;;;;38.83;20.90;;;;;;;11.96;65.35;100137.84;4853517;28;120418;-93
2022/02/04 03:31:41;;;;;;;35.63;20.55;;;;;;;12.05;64.86;100151.50;4847558;28;119865;-92
2022/02/04 03:34:07;;;;;;;43.15;20.92;;;;;;;11.74;64.90;100088.72;4855014;28;122801;-91
2022/02/04 03:36:33;;;;;;;41.67;19.77;;;;;;;12.04;65.19;100128.00;4839347;28;123319;-93
2022/02/04 03:38:59;;;;;;;34.40;19.20;;;;;;;11.90;65.20;100104.03;4855172;28;120143;-91
2022/02/04 03:41:24;;;;;;;39.90;20.00;;;;;;;11.85;64.82;100093.72;4852923;28;122158;-90
2022/02/04 03:43:50;;;;;;;40.33;21.15;;;;;;;11.91;64.77;100100.81;4871360;28;123832;-94
2022/02/04 03:46:16;;;;;;;41.40;21.27;;;;;;;11.86;64.74;100090.47;4855477;28;119718;-91
2022/02/04 03:48:41;;;;;;;40.75;21.83;;;;;;;11.94;64.52;100096.34;4874205;28;121812;-92
2022/02/04 03:51:07;;;;;;;38.03;21.25;;;;;;;11.84;64.21;100079.22;4853202;28;120634;-92
2022/02/04 03:53:32;;;;;;;44.05;22.73;;;;;;;11.99;64.36;100090.19;4855085;28;119767;-90
2022/02/04 03:55:58;;;;;;;38.67;23.98;;;;;;;12.08;64.75;100089.34;4853538;28;120397;-90
2022/02/04 03:58:24;;;;;;;42.70;24.95;;;;;;;12.07;64.62;100090.59;4855460;28;121676;-91
2022/02/04 04:00:49;;;;;;;43.08;24.25;;;;;;;11.98;64.79;100083.94;4848162;28;122386;-92
2022/02/04 04:03:19;;;;;;;46.58;25.77;;;;;;;11.74;65.05;100061.25;4854019;28;122827;-89
2022/02/04 04:05:48;;;;;;;39.95;25.42;;;;;;;11.99;64.72;100096.44;4835643;28;119923;-91
2022/02/04 04:08:16;;;;;;;43.88;26.55;;;;;;;12.05;64.42;100093.03;4851038;28;121865;-88
2022/02/04 04:10:42;;;;;;;42.83;26.25;;;;;;;11.95;64.68;100089.63;4872879;28;123164;-90
2022/02/04 04:13:10;;;;;;;42.03;25.75;;;;;;;11.82;64.87;100058.91;4852992;28;121376;-91
2022/02/04 04:15:36;;;;;;;42.65;24.55;;;;;;;11.96;65.34;100067.16;4869247;28;120925;-92
2022/02/04 04:18:02;;;;;;;39.85;24.52;;;;;;;12.10;65.33;100084.88;4849167;28;120074;-91
2022/02/04 04:20:29;;;;;;;40.80;25.30;;;;;;;12.05;65.04;100069.03;4854167;28;120900;-90
2022/02/04 04:22:56;;;;;;;35.75;23.13;;;;;;;12.17;65.29;100079.00;4850624;28;120829;-89
2022/02/04 04:25:22;;;;;;;40.10;25.65;;;;;;;12.01;64.59;100057.47;4844930;28;119674;-90
2022/02/04 04:27:50;;;;;;;41.75;24.92;;;;;;;11.95;64.41;100042.91;4839249;28;121570;-89
2022/02/04 04:30:17;;;;;;;41.70;25.90;;;;;;;11.98;64.94;100039.19;4837401;28;123306;-90
2022/02/04 04:32:44;;;;;;;35.80;23.85;;;;;;;11.99;64.51;100040.72;4852717;28;119609;-88
2022/02/04 04:35:13;;;;;;;41.38;25.70;;;;;;;12.22;64.94;100063.81;4852566;28;122812;-92
2022/02/04 04:37:50;;;;;;;36.80;23.42;;;;;;;12.32;65.63;100067.25;4854901;28;119492;-91
2022/02/04 05:26:13;;;;;;;;;;;;;;;;;;;;;
2022/02/04 05:31:24;;;;;;;35.85;24.17;;;;;;;12.26;65.79;99998.38;4837735;28;123465;-90
2022/02/04 05:33:50;;;;;;;41.65;25.15;;;;;;;12.26;65.61;99992.88;4848320;28;122201;-90
2022/02/04 05:36:19;;;;;;;43.13;27.55;;;;;;;12.27;64.06;99980.66;4852308;28;120402;-91
2022/02/04 05:38:45;;;;;;;41.70;24.98;;;;;;;11.89;65.48;99940.38;4837024;28;123135;-88
2022/02/04 05:41:14;;;;;;;42.10;26.30;;;;;;;12.01;65.52;99968.78;4834612;28;122930;-90
2022/02/04 05:43:42;;;;;;;43.90;27.55;;;;;;;11.91;65.45;99952.41;4836616;28;120132;-89
2022/02/04 05:46:16;;;;;;;42.25;27.80;;;;;;;12.02;65.21;99957.31;4851583;28;123330;-90
2022/02/04 05:48:46;;;;;;;46.45;28.30;;;;;;;12.13;64.85;99968.47;4866809;28;119830;-91
2022/02/04 05:51:28;;;;;;;44.97;27.95;;;;;;;12.17;65.05;99980.03;4850365;28;120015;-91
2022/02/04 05:54:03;;;;;;;43.55;28.52;;;;;;;12.20;65.43;99984.56;4851127;28;122465;-90
2022/02/04 05:56:42;;;;;;;42.58;27.75;;;;;;;12.20;65.50;99972.81;4866658;28;120282;-91
2022/02/04 06:22:18;;;;;;;;;;;;;;;;;;;;;
2022/02/04 06:22:53;;;;;;;43.35;27.40;;;;;;;12.38;64.72;99955.31;4851363;28;120339;-90
2022/02/04 06:25:19;;;;;;;44.30;26.98;;;;;;;12.45;65.06;99955.66;4837268;28;119577;-91
2022/02/04 06:27:45;;;;;;;51.90;28.10;;;;;;;12.34;64.85;99935.53;4833408;28;120672;-90
2022/02/04 06:30:12;;;;;;;39.78;25.58;;;;;;;12.42;65.59;99956.63;4850746;28;119975;-90
2022/02/04 06:32:38;;;;;;;41.80;25.20;;;;;;;12.30;65.61;99932.94;4846091;28;120604;-91
2022/02/04 06:35:07;;;;;;;37.25;25.25;;;;;;;12.43;65.60;99951.88;4847101;28;120187;-91
2022/02/04 06:37:33;;;;;;;43.00;25.60;;;;;;;12.42;65.46;99950.38;4832589;28;119824;-89
2022/02/04 06:39:59;;;;;;;43.00;27.38;;;;;;;12.39;65.37;99938.34;4850569;28;119805;-89
2022/02/04 06:42:27;;;;;;;42.20;27.23;;;;;;;12.46;64.62;99948.16;4850485;28;123101;-89
2022/02/04 06:44:53;;;;;;;43.50;27.67;;;;;;;12.38;64.44;99927.81;4852294;28;119926;-89
2022/02/04 06:47:19;;;;;;;51.33;27.50;;;;;;;12.34;64.50;99919.03;4850683;28;122480;-90
2022/02/04 06:49:45;;;;;;;43.55;27.02;;;;;;;12.18;64.75;99893.56;4867601;28;123210;-88
2022/02/04 06:52:11;;;;;;;44.40;27.17;;;;;;;12.00;64.05;99880.06;4844765;28;122458;-89
2022/02/04 06:54:40;;;;;;;43.28;26.90;;;;;;;12.29;64.18;99932.19;4867264;28;123116;-89
2022/02/04 06:57:06;;;;;;;40.42;25.90;;;;;;;12.19;64.92;99914.31;4851341;28;121028;-89
2022/02/04 06:59:34;;;;;;;43.08;26.65;;;;;;;12.30;65.36;99938.44;4866728;28;120146;-90
2022/02/04 07:02:03;;;;;;;41.70;24.85;;;;;;;12.32;65.97;99932.50;4846385;28;123186;-88
2022/02/04 07:04:32;;;;;;;43.90;25.42;;;;;;;12.21;65.45;99908.34;4853219;28;119844;-88
2022/02/04 07:07:01;;;;;;;46.95;25.98;;;;;;;12.35;65.05;99909.53;4848540;28;120144;-89
2022/02/04 07:09:45;;;;;;;46.50;28.67;;;;;;;12.09;64.65;99882.72;4869238;28;120467;-89
2022/02/04 07:19:56;;;;;;;47.65;27.38;;;;;;;12.42;65.65;99909.88;4845098;28;120553;-88
2022/02/04 07:22:29;;;;;;;50.80;27.08;;;;;;;12.32;65.98;99905.75;4853849;28;123396;-88
2022/02/04 07:24:59;;;;;;;49.00;27.77;;;;;;;12.26;67.13;99902.91;4853260;28;120451;-89
2022/02/04 07:27:28;;;;;;;48.63;29.50;;;;;;;12.16;66.13;99868.56;4852064;28;122870;-88
2022/02/04 07:29:55;;;;;;;51.55;28.33;;;;;;;12.40;67.21;99912.34;4842901;28;123362;-89
2022/02/04 07:32:37;;;;;;;48.88;29.15;;;;;;;12.37;66.17;99901.56;4833088;28;120324;-86
2022/02/04 07:40:52;;;;;;;49.85;28.38;;;;;;;12.54;67.38;99897.03;4833358;28;119987;-88
2022/02/04 07:43:18;;;;;;;48.53;28.67;;;;;;;12.59;65.97;99907.34;4804398;28;123713;-90
2022/02/04 07:45:44;;;;;;;50.33;28.45;;;;;;;12.46;65.97;99874.66;4851953;28;120556;-85
2022/02/04 07:48:09;;;;;;;46.55;28.05;;;;;;;12.53;66.73;99890.75;4867282;28;122137;-87
2022/02/04 07:50:35;;;;;;;49.20;27.98;;;;;;;12.31;67.08;99867.75;4852524;28;123319;-89
2022/02/04 07:53:01;;;;;;;50.92;28.73;;;;;;;12.54;65.97;99892.28;4848461;28;119963;-89
2022/02/04 07:55:27;;;;;;;45.40;27.25;;;;;;;12.59;66.82;99904.56;4851832;28;120428;-89
2022/02/04 07:57:53;;;;;;;44.72;26.80;;;;;;;12.49;66.17;99878.44;4856547;28;123166;-89
2022/02/04 08:00:19;;;;;;;48.05;26.85;;;;;;;12.52;65.71;99900.22;4868528;28;119833;-90
2022/02/04 08:02:47;;;;;;;45.17;26.77;;;;;;;12.59;65.56;99899.06;4853303;28;120678;-89
2022/02/04 08:05:17;;;;;;;54.78;26.67;;;;;;;12.53;65.85;99887.22;4865445;28;120010;-88
2022/02/04 08:07:53;;;;;;;61.13;30.27;;;;;;;12.48;69.24;99869.44;4849815;28;123179;-89
2022/02/04 08:10:28;;;;;;;49.70;27.95;;;;;;;12.54;67.57;99869.50;4863670;28;120489;-90
2022/02/04 08:16:05;;;;;;;48.75;24.55;;;;;;;12.62;67.44;99869.84;4850503;28;122401;-89
2022/02/04 08:18:57;;;;;;;39.35;24.58;;;;;;;12.56;65.38;99867.78;4853782;28;120406;-88
2022/02/04 08:24:06;;;;;;;44.10;25.00;;;;;;;12.56;65.14;99861.53;4847616;28;123135;-89
2022/02/04 08:29:42;;;;;;;47.25;26.92;;;;;;;12.38;65.46;99840.56;4846966;28;122494;-87
2022/02/04 08:53:05;;;;;;;46.85;25.88;;;;;;;12.44;65.05;99813.13;4850830;28;120598;-89
2022/02/04 08:58:28;;;;;;;41.22;24.13;;;;;;;12.65;66.36;99831.09;4839093;28;121121;-88
2022/02/04 09:01:16;;;;;;;40.80;25.02;;;;;;;12.73;66.16;99825.91;4866144;28;121179;-88
2022/02/04 09:03:51;;;;;;;44.95;25.25;;;;;;;12.77;64.50;99816.22;4835449;28;120582;-90
2022/02/04 09:06:24;;;;;;;42.95;23.85;;;;;;;12.75;65.18;99810.44;4854866;28;120052;-88
2022/02/04 09:09:00;;;;;;;40.37;24.70;;;;;;;12.76;64.56;99813.94;4865949;28;120956;-90
2022/02/04 09:19:45;;;;;;;37.15;23.85;;;;;;;12.82;63.66;99795.50;4852446;28;120349;-88
2022/02/04 09:22:21;;;;;;;40.38;24.05;;;;;;;12.75;63.89;99782.91;4852215;28;120502;-89
2022/02/04 09:24:47;;;;;;;37.22;22.67;;;;;;;12.69;63.85;99778.63;4848698;28;119950;-89
2022/02/04 09:27:14;;;;;;;37.33;23.27;;;;;;;12.42;64.76;99749.59;4868926;28;119865;-88
2022/02/04 09:29:39;;;;;;;38.33;24.20;;;;;;;12.67;64.48;99783.84;4853398;28;120483;-86
2022/02/04 09:32:05;;;;;;;32.08;20.55;;;;;;;12.67;65.86;99778.34;4853718;28;119945;-88
2022/02/04 09:34:31;;;;;;;37.05;22.55;;;;;;;12.73;64.24;99782.66;4840628;28;123186;-89
2022/02/04 09:36:57;;;;;;;37.78;20.35;;;;;;;12.57;64.59;99766.75;4845608;28;120124;-89
2022/02/04 09:39:25;;;;;;;37.08;21.10;;;;;;;12.56;64.28;99763.25;4848590;28;121999;-89
2022/02/04 09:41:51;;;;;;;33.97;20.55;;;;;;;12.45;64.78;99752.13;4850953;28;123257;-89
2022/02/04 09:44:17;;;;;;;35.38;20.17;;;;;;;12.46;64.74;99739.13;4853134;28;120311;-88
2022/02/04 09:46:43;;;;;;;35.70;20.00;;;;;;;12.54;64.74;99743.75;4853611;28;120297;-88
2022/02/04 09:49:26;;;;;;;33.47;20.35;;;;;;;12.48;64.84;99733.91;4848864;28;123103;-89
2022/02/04 10:17:22;;;;;;;39.10;20.83;;;;;;;12.57;66.81;99731.00;4857144;28;119794;-90
2022/02/04 10:22:18;;;;;;;33.67;19.15;;;;;;;12.59;67.70;99723.78;4851467;28;119720;-90
2022/02/04 10:24:53;;;;;;;35.45;20.02;;;;;;;12.68;66.56;99725.59;4852661;28;121005;-90
2022/02/04 10:27:21;;;;;;;32.10;19.10;;;;;;;12.55;67.09;99694.97;4853551;28;119648;-92
2022/02/04 10:29:56;;;;;;;31.73;18.88;;;;;;;12.72;68.59;99717.09;4836428;28;122464;-89
2022/02/04 10:32:48;;;;;;;31.50;19.98;;;;;;;12.66;67.68;99688.81;4853432;28;122471;-92
2022/02/04 10:35:27;;;;;;;30.45;19.98;;;;;;;12.68;67.96;99698.06;4835076;28;119674;-89
2022/02/04 10:38:18;;;;;;;31.00;19.63;;;;;;;12.75;68.28;99691.38;4850642;28;123677;-91
2022/02/04 10:41:01;;;;;;;30.33;20.58;;;;;;;12.78;67.37;99695.91;4869158;28;119691;-92
2022/02/04 10:43:57;;;;;;;31.40;21.38;;;;;;;12.83;67.17;99692.44;4856607;28;119973;-92
2022/02/04 10:55:07;;;;;;;26.50;19.40;;;;;;;12.79;67.55;99670.66;4829602;28;123345;-94
2022/02/04 10:57:46;;;;;;;27.50;19.48;;;;;;;12.71;67.58;99671.56;4853651;28;119602;-90
2022/02/04 11:00:28;;;;;;;26.38;20.30;;;;;;;12.68;67.64;99667.81;4854517;28;119742;-91
2022/02/04 11:02:59;;;;;;;27.33;19.55;;;;;;;12.67;68.12;99651.78;4874842;28;120484;-92
2022/02/04 11:05:32;;;;;;;27.13;20.52;;;;;;;12.73;67.25;99653.34;4861999;28;120238;-93
2022/02/04 11:08:17;;;;;;;28.30;20.63;;;;;;;12.69;67.58;99650.06;4839455;28;123094;-93
2022/02/04 11:11:08;;;;;;;25.50;19.17;;;;;;;12.56;68.19;99624.97;4854632;28;119615;-95
2022/02/04 11:36:11;;;;;;;27.48;21.42;;;;;;;12.65;68.69;99605.53;4852026;28;123515;-92
2022/02/04 11:48:24;;;;;;;25.45;20.45;;;;;;;12.46;69.12;99571.38;4803340;29;123312;-92
2022/02/04 11:51:13;;;;;;;25.45;20.48;;;;;;;12.60;68.35;99571.22;4853003;28;121135;-92
2022/02/04 11:56:24;;;;;;;22.73;19.17;;;;;;;12.60;68.90;99548.47;4832918;28;119954;-94
2022/02/04 11:59:00;;;;;;;21.83;18.30;;;;;;;12.73;68.67;99551.53;4854169;28;122129;-94
2022/02/04 12:01:44;;;;;;;24.08;17.95;;;;;;;12.73;68.02;99537.78;4867391;28;123304;-92
2022/02/04 12:04:21;;;;;;;21.02;18.23;;;;;;;12.78;68.63;99552.84;4852750;28;119628;-95
2022/02/04 12:06:47;;;;;;;21.77;18.23;;;;;;;12.55;68.18;99505.19;4855315;28;121650;-85
2022/02/04 12:09:35;;;;;;;21.80;18.38;;;;;;;12.81;68.62;99543.59;4854982;28;123340;-94
2022/02/04 12:12:02;;;;;;;21.50;17.67;;;;;;;12.74;68.33;99522.03;4868081;28;120061;-89
2022/02/04 12:14:35;;;;;;;17.60;15.70;;;;;;;12.83;68.05;99541.09;4870423;28;119771;-93
2022/02/04 12:17:10;;;;;;;22.05;16.30;;;;;;;12.84;69.29;99526.09;4857173;28;122612;-93
2022/02/04 12:19:38;;;;;;;21.15;16.63;;;;;;;12.84;68.42;99532.34;4854789;28;120043;-90
2022/02/04 12:22:03;;;;;;;19.50;15.75;;;;;;;12.79;68.67;99513.81;4852312;28;120727;-91
2022/02/04 12:24:31;;;;;;;17.23;15.30;;;;;;;12.76;68.54;99509.28;4837400;28;121722;-89
2022/02/04 12:27:24;;;;;;;20.77;15.25;;;;;;;12.86;68.01;99516.09;4851802;28;119781;-90
2022/02/04 12:29:50;;;;;;;19.58;14.57;;;;;;;12.79;68.10;99502.81;4851586;28;122631;-89
2022/02/04 12:32:19;;;;;;;19.38;16.30;;;;;;;12.76;67.64;99497.53;4864685;28;119976;-91
2022/02/04 12:34:49;;;;;;;17.63;15.73;;;;;;;12.69;68.32;99509.75;4846166;28;121065;-90
2022/02/04 12:37:16;;;;;;;16.38;14.55;;;;;;;12.64;68.80;99491.22;4832142;28;123273;-87
2022/02/04 12:39:42;;;;;;;17.23;13.88;;;;;;;12.65;68.54;99500.97;4851409;28;123125;-89
2022/02/04 12:42:10;;;;;;;18.10;14.98;;;;;;;12.33;68.01;99445.31;4853468;28;120645;-88
2022/02/04 12:44:41;;;;;;;17.02;14.40;;;;;;;12.56;68.55;99476.44;4821355;28;119986;-89
2022/02/04 12:47:21;;;;;;;16.67;14.05;;;;;;;12.56;68.57;99476.44;4843523;28;122054;-89
2022/02/04 12:49:54;;;;;;;21.92;17.45;;;;;;;12.62;68.44;99463.47;4853135;28;123088;-89
2022/02/04 12:52:26;;;;;;;19.92;15.60;;;;;;;12.57;67.47;99458.69;4853639;28;121038;-89
2022/02/04 12:57:56;;;;;;;21.02;15.38;;;;;;;12.43;69.13;99462.38;4846972;28;123363;-88
2022/02/04 13:01:55;;;;;;;25.10;17.00;;;;;;;12.38;68.44;99427.34;4852184;28;120016;-86
2022/02/04 13:11:02;;;;;;;22.73;17.23;;;;;;;12.38;69.43;99416.34;4868949;28;120576;-87
2022/02/04 13:13:44;;;;;;;23.30;17.52;;;;;;;12.21;69.21;99395.00;4838251;28;119686;-90
2022/02/04 13:16:20;;;;;;;23.95;19.05;;;;;;;12.21;69.45;99397.00;4836989;28;122448;-87
2022/02/04 13:18:46;;;;;;;24.23;16.50;;;;;;;12.31;69.27;99400.31;4835248;28;123168;-88
2022/02/04 13:21:13;;;;;;;17.38;14.65;;;;;;;12.28;68.98;99404.78;4851187;28;120815;-88
2022/02/04 13:23:39;;;;;;;20.80;16.35;;;;;;;12.31;69.94;99412.06;4853816;28;121957;-87
2022/02/04 13:26:06;;;;;;;23.13;16.80;;;;;;;12.26;69.73;99394.28;4857099;28;120334;-90
2022/02/04 13:28:39;;;;;;;23.67;16.38;;;;;;;12.33;70.61;99384.09;4827340;28;122389;-84
2022/02/04 13:31:06;;;;;;;19.20;15.85;;;;;;;12.37;70.41;99390.84;4844261;28;123680;-90
2022/02/04 13:33:38;;;;;;;19.45;14.55;;;;;;;12.41;70.03;99393.34;4846937;28;120493;-90
2022/02/04 13:36:30;;;;;;;19.77;15.05;;;;;;;12.41;69.61;99382.34;4832410;28;122039;-82
2022/02/04 13:41:55;;;;;;;17.75;15.07;;;;;;;12.36;69.55;99374.84;4846881;28;121328;-88
2022/02/04 14:01:00;;;;;;;18.15;15.43;;;;;;;12.41;70.34;99325.38;4860753;28;120514;-89
2022/02/04 14:03:31;;;;;;;17.02;14.80;;;;;;;12.41;69.51;99316.38;4828717;28;119781;-89
2022/02/04 14:06:10;;;;;;;19.60;14.77;;;;;;;12.49;70.19;99325.63;4846114;28;120329;-87
2022/02/04 14:11:10;;;;;;;16.90;13.35;;;;;;;12.50;69.69;99338.88;4851735;28;120245;-90
2022/02/04 14:13:36;;;;;;;17.25;13.13;;;;;;;12.54;71.12;99369.66;4849207;28;123280;-91
2022/02/04 14:16:08;;;;;;;7.80;6.57;;;;;;;12.50;70.43;99354.63;4833708;28;120224;-87
2022/02/04 14:18:38;;;;;;;4.28;2.80;;;;;;;12.57;67.68;99378.94;4864903;28;120590;-88
2022/02/04 14:21:08;;;;;;;23.08;3.67;;;;;;;12.04;66.18;99317.22;4849596;28;122235;-86
2022/02/04 14:23:33;;;;;;;4.72;1.20;;;;;;;12.21;65.69;99375.03;4832637;28;120515;-85
2022/02/04 14:26:16;;;;;;;;;;;;;;;;;;;;;
2022/02/04 14:28:57;;;;;;;5.45;1.33;;;;;;;11.92;66.28;99379.63;4849640;28;119914;-89
2022/02/04 14:31:26;;;;;;;3.05;1.30;;;;;;;11.84;66.12;99377.81;4832489;28;121873;-90
2022/02/04 15:02:47;;;;;;;3.63;0.70;;;;;;;10.84;64.73;99408.63;4832815;28;122435;-90
2022/02/04 15:05:17;;;;;;;3.13;0.80;;;;;;;10.71;64.93;99410.97;4848594;28;120521;-89
2022/02/04 15:07:44;;;;;;;2.13;0.60;;;;;;;10.55;64.91;99403.31;4832327;28;122049;-92
2022/02/04 15:10:15;;;;;;;1.08;0.40;;;;;;;10.61;64.49;99417.84;4846254;28;123835;-88
2022/02/04 15:12:44;;;;;;;2.55;0.50;;;;;;;10.40;64.50;99408.84;4848679;28;120502;-85
2022/02/04 15:15:10;;;;;;;1.48;0.57;;;;;;;10.07;64.40;99370.78;4833222;28;122167;-90
2022/02/04 15:17:37;;;;;;;2.05;0.43;;;;;;;10.41;64.06;99426.84;4851576;28;120468;-93
2022/02/04 15:20:04;;;;;;;4.03;0.70;;;;;;;10.32;64.84;99416.75;4848076;28;120460;-88
2022/02/04 15:22:30;;;;;;;3.45;1.15;;;;;;;10.21;64.76;99416.59;4863726;28;120476;-86
2022/02/04 15:25:01;;;;;;;2.40;0.85;;;;;;;10.27;65.31;99430.38;4847564;28;120024;-88
2022/02/04 15:27:27;;;;;;;2.95;0.70;;;;;;;10.22;65.25;99412.63;4830738;28;122262;-90
2022/02/04 15:29:53;;;;;;;2.63;0.63;;;;;;;10.03;64.96;99390.19;4831987;28;123184;-90
2022/02/04 15:32:20;;;;;;;1.63;0.55;;;;;;;10.05;64.11;99403.41;4847059;28;120151;-88
2022/02/04 15:34:45;;;;;;;2.30;0.50;;;;;;;9.98;64.18;99412.00;4849691;28;120790;-88
2022/02/04 15:37:11;;;;;;;2.35;0.70;;;;;;;9.95;64.50;99413.72;4851060;28;119803;-84
2022/02/04 15:39:39;;;;;;;3.10;0.70;;;;;;;9.98;64.39;99428.44;4853745;28;121038;-89
2022/02/04 15:42:11;;;;;;;1.48;0.55;;;;;;;9.82;64.52;99422.25;4851744;28;120404;-88
2022/02/04 15:44:42;;;;;;;1.40;0.50;;;;;;;9.97;64.39;99465.28;4865188;28;119865;-85
2022/02/04 15:49:57;;;;;;;0.63;0.30;;;;;;;9.52;63.13;99437.19;4849791;28;124254;-90
2022/02/04 15:52:50;;;;;;;0.88;0.50;;;;;;;9.52;62.96;99475.53;4867708;28;120300;-89
2022/02/04 15:57:57;;;;;;;1.10;0.52;;;;;;;9.49;63.81;99476.47;4850307;28;121836;-91
2022/02/04 16:05:42;;;;;;;3.00;0.70;;;;;;;9.14;63.25;99471.59;4850983;28;120478;-86
2022/02/04 16:08:13;;;;;;;1.38;0.60;;;;;;;9.15;63.93;99481.31;4864177;28;120307;-90
2022/02/04 16:13:37;;;;;;;1.55;0.80;;;;;;;9.01;64.41;99509.41;4833635;28;119852;-87
2022/02/04 16:18:35;;;;;;;0.95;0.50;;;;;;;8.88;63.38;99497.94;4842747;28;122237;-84
2022/02/04 16:26:22;;;;;;;0.70;0.60;;;;;;;8.90;64.94;99531.06;4853436;28;120199;-91
2022/02/04 16:28:44;;;;;;;0.98;0.63;;;;;;;8.94;64.52;99542.56;4849265;28;122407;-90
2022/02/04 16:31:13;;;;;;;0.77;0.55;;;;;;;8.58;64.24;99499.81;4833414;28;123114;-86
2022/02/04 16:33:39;;;;;;;1.23;0.52;;;;;;;8.78;64.26;99540.25;4833951;28;120737;-84
2022/02/04 16:36:12;;;;;;;1.13;0.70;;;;;;;8.81;64.33;99555.72;4851283;28;119685;-84
2022/02/04 16:38:40;;;;;;;1.30;0.50;;;;;;;8.91;64.11;99559.91;4832721;28;123450;-88
2022/02/04 16:41:11;;;;;;;1.13;0.50;;;;;;;8.91;64.11;99570.84;4848648;28;119909;-91
2022/02/04 16:43:38;;;;;;;2.08;0.70;;;;;;;8.82;63.66;99565.44;4848998;28;122138;-90
2022/02/04 16:46:06;;;;;;;1.00;0.60;;;;;;;8.73;63.80;99560.78;4847953;28;124052;-90
2022/02/04 16:48:37;;;;;;;1.15;0.60;;;;;;;8.60;64.19;99552.03;4853359;28;119675;-88
2022/02/04 16:51:04;;;;;;;1.63;0.80;;;;;;;8.76;63.23;99591.91;4848986;28;121851;-92
2022/02/04 16:53:32;;;;;;;2.08;0.90;;;;;;;8.71;63.25;99598.75;4833434;28;121219;-91
2022/02/04 16:55:58;;;;;;;2.53;1.10;;;;;;;8.55;63.52;99580.78;4849660;28;119546;-87
2022/02/04 16:58:25;;;;;;;3.38;1.95;;;;;;;8.14;63.29;99538.56;4851039;28;120873;-89
2022/02/04 17:00:51;;;;;;;5.95;2.33;;;;;;;8.46;63.70;99605.38;4847821;28;119600;-86
2022/02/04 17:03:16;;;;;;;3.15;1.77;;;;;;;8.32;64.25;99595.88;4850033;28;121955;-82
2022/02/04 17:08:13;;;;;;;4.18;2.30;;;;;;;8.27;63.02;99596.47;4852664;28;120081;-90
2022/02/04 17:10:44;;;;;;;2.22;1.23;;;;;;;8.38;63.34;99623.34;4850278;28;120798;-89
2022/02/04 17:13:11;;;;;;;3.92;2.08;;;;;;;8.41;64.25;99636.09;4849030;28;120218;-91
2022/02/04 17:15:38;;;;;;;4.95;2.47;;;;;;;8.27;63.69;99617.56;4834406;28;121709;-92
2022/02/04 17:18:06;;;;;;;8.70;4.68;;;;;;;8.37;63.62;99635.50;4848604;28;123719;-91
2022/02/04 17:20:32;;;;;;;7.20;3.30;;;;;;;8.28;64.30;99627.28;4850769;28;119550;-92
2022/02/04 17:23:03;;;;;;;10.80;5.00;;;;;;;8.29;64.50;99631.53;4865160;28;119835;-92
2022/02/04 17:25:35;;;;;;;4.80;2.22;;;;;;;8.35;64.40;99651.59;4848486;28;123882;-89
2022/02/04 17:28:02;;;;;;;4.65;1.27;;;;;;;8.35;64.52;99654.31;4864439;28;119967;-87
2022/02/04 17:30:28;;;;;;;2.33;1.10;;;;;;;8.24;64.78;99632.16;4851572;28;122138;-88
2022/02/04 17:32:54;;;;;;;4.40;2.38;;;;;;;7.99;64.04;99609.44;4830118;28;119605;-88
2022/02/04 17:35:24;;;;;;;2.45;1.10;;;;;;;8.28;64.01;99638.19;4834158;28;122245;-90
2022/02/04 17:37:51;;;;;;;2.00;0.90;;;;;;;8.41;63.95;99657.94;4847691;28;123324;-90
2022/02/04 17:40:18;;;;;;;2.83;1.10;;;;;;;8.39;64.24;99662.34;4847292;28;119865;-88
2022/02/04 17:42:48;;;;;;;4.90;1.35;;;;;;;8.50;64.37;99665.34;4846961;28;121054;-92
2022/02/04 17:45:18;;;;;;;4.68;1.92;;;;;;;8.31;64.85;99637.31;4827293;28;123032;-89
2022/02/04 17:47:52;;;;;;;3.25;1.40;;;;;;;8.50;64.31;99652.44;4862435;28;121279;-90
2022/02/04 17:50:25;;;;;;;5.93;2.17;;;;;;;8.45;64.32;99649.56;4847786;28;122639;-88
2022/02/04 17:52:58;;;;;;;2.55;1.42;;;;;;;8.57;64.58;99670.50;4846846;28;124022;-89
2022/02/04 17:55:31;;;;;;;5.93;1.75;;;;;;;8.53;64.69;99639.84;4864425;28;122074;-90